Terminal Aerodrome Forecast
Issued by NWS

Home | Current Version | Previous Version | Text Only | Print | Product List | Glossary On
Versions: 1 2 3 4 5 6 7 8 9 10 11 12 13 14 15 16 17 18 19 20 21 22 23 24 25 26 27
598
FTUS41 KBUF 290907 AAA
TAFIAG
TAF AMD
KIAG 290907Z 2909/3006 02004KT P6SM BKN070
     FM291200 04008KT P6SM BKN070
     FM291900 03011KT P6SM BKN250
     FM300400 07004KT P6SM BKN120=

USA.gov is the U.S. government's official web portal to all federal, state and local government web resources and services.